Acacia Lake, Texas
Current Conditions -  °F | °C
As of 6:53 AM on Monday 22 Dec 2014 (Local Time) from KBRO Reporting Station
Haze Haze  
Wind Chill: 62°   Ceiling: 200
Heat Index: 62°   Visibility: 3mi
Dew Point: 61°   Wind: 8mph
Humidity: 96%   Direction: 220°SW
Pressure: 29.8"   Gusts: NA
Location:  26.0002°N, 97.5729°W
Report Text: KBRO 221253Z 22007KT 3SM BR OVC002 17/16 A2980 RMK AO2 SLP089 T01670161
Loading
Personal Weather Stations






























Interactive Weather Map New forecast layout! Learn more

10-Day Weather Forecast

Advertisements
Track Severe Weather on mobile